Main page
METAR-TAF:

METAR-TAF

Airports :

Sumburgh Airport

Sumburgh, Shetland, Scotland

latitude: 59-53N, longitude: 001-18W, elevation: 5 m

Current weather observation

The report was made 15 minutes ago, at 04:20 UTC
Wind 14 kt from the South/Southwest
Temperature 13°C
Humidity 100%
Pressure 1006 hPa
Visibility: 6000 m

METAR: EGPB 220420Z AUTO 21014KT 6000 OVC002/// 13/13 Q1006 RERA

Time: 05:35 (04:35 UTC)

Forecast

The report was made 1 hour and 28 minutes ago, at 03:07 UTC
Forecast valid from 22 at 03 UTC to 22 at 12 UTC
Wind 10 kt from the South/Southwest
Visibility 10 km or more
Broken clouds at a height of 500 ft
Temporary
from 22 at 03 UTC to 22 at 12 UTC
Visibility: 4000 m
Broken clouds at a height of 300 ft
rain, drizzle
Probability 40% :
Temporary
from 22 at 04 UTC to 22 at 12 UTC
Visibility: 1400 m
Broken clouds at a height of 100 ft
mist

TAF: EGPB 220307Z 2203/2212 20010KT 9999 BKN005 TEMPO 2203/2212 4000 RADZ BKN003 PROB40 TEMPO 2204/2212 1400 BR BKN001

Weather observations and forecasts of more than 4000 airports (METAR and TAF reports).

The available stations are represented by yellow and red dots on the map.

Hover mouse over dot to see the name of the station.

Then click to see weather observations and forecasts.

To change the map : click on the green buttons with a black cross to zoom in, on the green button with a dash to zoom out, or on the green arrows for adjacent maps.


METAR-TAF: